sensor_id;sensor_type;location;lat;lon;timestamp;temperature;humidity
17333;DHT22;8784;50.94667800;7.08448400;2023-04-03T06:13:40;6.10;99.90
17333;DHT22;8784;50.94667800;7.08448400;2023-04-03T06:16:08;6.80;99.90
17333;DHT22;8784;50.94667800;7.08448400;2023-04-03T06:18:36;7.30;99.90
17333;DHT22;8784;50.94667800;7.08448400;2023-04-03T06:21:03;7.60;99.90
17333;DHT22;8784;50.94667800;7.08448400;2023-04-03T06:23:30;8.10;99.90
17333;DHT22;8784;50.94667800;7.08448400;2023-04-03T06:25:58;9.70;99.90
17333;DHT22;8784;50.94667800;7.08448400;2023-04-03T06:28:25;11.60;99.90
17333;DHT22;8784;50.94667800;7.08448400;2023-04-03T06:30:53;13.30;99.90
17333;DHT22;8784;50.94667800;7.08448400;2023-04-03T06:33:20;14.80;99.90
17333;DHT22;8784;50.94667800;7.08448400;2023-04-03T06:35:47;16.40;99.90
17333;DHT22;8784;50.94667800;7.08448400;2023-04-03T06:38:14;17.80;96.00
17333;DHT22;8784;50.94667800;7.08448400;2023-04-03T06:40:40;18.80;94.10
17333;DHT22;8784;50.94667800;7.08448400;2023-04-03T06:43:07;19.70;91.00
17333;DHT22;8784;50.94667800;7.08448400;2023-04-03T06:45:34;20.20;89.80
17333;DHT22;8784;50.94667800;7.08448400;2023-04-03T06:48:03;20.70;86.30
17333;DHT22;8784;50.94667800;7.08448400;2023-04-03T06:50:31;21.50;83.90
17333;DHT22;8784;50.94667800;7.08448400;2023-04-03T06:52:57;22.40;81.40
17333;DHT22;8784;50.94667800;7.08448400;2023-04-03T06:55:26;23.20;78.00
17333;DHT22;8784;50.94667800;7.08448400;2023-04-03T06:57:53;23.90;76.20
17333;DHT22;8784;50.94667800;7.08448400;2023-04-03T07:00:20;24.50;73.00
17333;DHT22;8784;50.94667800;7.08448400;2023-04-03T07:02:47;24.90;71.20
17333;DHT22;8784;50.94667800;7.08448400;2023-04-03T07:05:15;25.20;68.00
17333;DHT22;8784;50.94667800;7.08448400;2023-04-03T07:07:42;24.80;63.70
17333;DHT22;8784;50.94667800;7.08448400;2023-04-03T07:10:10;23.10;62.60
17333;DHT22;8784;50.94667800;7.08448400;2023-04-03T07:12:38;22.20;65.40
17333;DHT22;8784;50.94667800;7.08448400;2023-04-03T07:15:06;21.60;64.90
17333;DHT22;8784;50.94667800;7.08448400;2023-04-03T07:17:33;20.00;64.00
17333;DHT22;8784;50.94667800;7.08448400;2023-04-03T07:20:01;18.70;66.60
17333;DHT22;8784;50.94667800;7.08448400;2023-04-03T07:22:30;17.60;65.50
17333;DHT22;8784;50.94667800;7.08448400;2023-04-03T07:24:58;16.40;67.20
17333;DHT22;8784;50.94667800;7.08448400;2023-04-03T07:27:25;15.80;67.60
17333;DHT22;8784;50.94667800;7.08448400;2023-04-03T07:29:52;15.20;66.90
17333;DHT22;8784;50.94667800;7.08448400;2023-04-03T07:32:21;14.40;67.10
17333;DHT22;8784;50.94667800;7.08448400;2023-04-03T07:34:48;13.90;67.10
17333;DHT22;8784;50.94667800;7.08448400;2023-04-03T07:37:15;13.50;67.10
17333;DHT22;8784;50.94667800;7.08448400;2023-04-03T07:39:45;12.60;67.30
17333;DHT22;8784;50.94667800;7.08448400;2023-04-03T07:42:11;12.10;68.70
17333;DHT22;8784;50.94667800;7.08448400;2023-04-03T07:44:38;12.00;69.30
17333;DHT22;8784;50.94667800;7.08448400;2023-04-03T07:47:05;11.70;69.50
17333;DHT22;8784;50.94667800;7.08448400;2023-04-03T07:49:33;11.60;70.00
17333;DHT22;8784;50.94667800;7.08448400;2023-04-03T07:52:03;11.50;70.40
17333;DHT22;8784;50.94667800;7.08448400;2023-04-03T07:54:30;11.40;70.50
17333;DHT22;8784;50.94667800;7.08448400;2023-04-03T07:56:59;11.30;70.60
17333;DHT22;8784;50.94667800;7.08448400;2023-04-03T07:59:25;11.20;70.60
17333;DHT22;8784;50.94667800;7.08448400;2023-04-03T08:01:52;11.00;70.70
17333;DHT22;8784;50.94667800;7.08448400;2023-04-03T08:04:19;10.80;70.50
17333;DHT22;8784;50.94667800;7.08448400;2023-04-03T08:06:46;10.70;70.80
17333;DHT22;8784;50.94667800;7.08448400;2023-04-03T08:09:13;10.80;71.50
17333;DHT22;8784;50.94667800;7.08448400;2023-04-03T08:11:41;10.80;71.50
17333;DHT22;8784;50.94667800;7.08448400;2023-04-03T08:14:09;10.90;71.70
17333;DHT22;8784;50.94667800;7.08448400;2023-04-03T08:16:40;10.90;70.40
17333;DHT22;8784;50.94667800;7.08448400;2023-04-03T08:19:07;10.80;71.10
17333;DHT22;8784;50.94667800;7.08448400;2023-04-03T08:21:36;10.60;70.70
17333;DHT22;8784;50.94667800;7.08448400;2023-04-03T08:24:03;10.60;71.10
17333;DHT22;8784;50.94667800;7.08448400;2023-04-03T08:26:31;10.60;71.10
17333;DHT22;8784;50.94667800;7.08448400;2023-04-03T08:28:58;10.60;70.80
17333;DHT22;8784;50.94667800;7.08448400;2023-04-03T08:31:26;10.80;71.50
17333;DHT22;8784;50.94667800;7.08448400;2023-04-03T08:33:53;10.80;70.70
17333;DHT22;8784;50.94667800;7.08448400;2023-04-03T08:36:23;10.50;69.10
17333;DHT22;8784;50.94667800;7.08448400;2023-04-03T08:38:51;10.40;69.30
17333;DHT22;8784;50.94667800;7.08448400;2023-04-03T08:41:25;10.50;70.20
17333;DHT22;8784;50.94667800;7.08448400;2023-04-03T08:44:11;10.80;70.90
17333;DHT22;8784;50.94667800;7.08448400;2023-04-03T08:46:52;11.20;70.30
17333;DHT22;8784;50.94667800;7.08448400;2023-04-03T08:49:25;11.30;69.10
17333;DHT22;8784;50.94667800;7.08448400;2023-04-03T08:51:54;11.50;67.90
17333;DHT22;8784;50.94667800;7.08448400;2023-04-03T08:54:29;11.60;67.90
17333;DHT22;8784;50.94667800;7.08448400;2023-04-03T08:56:58;11.70;67.30
17333;DHT22;8784;50.94667800;7.08448400;2023-04-03T08:59:31;11.90;67.30
17333;DHT22;8784;50.94667800;7.08448400;2023-04-03T09:02:04;12.30;67.70
17333;DHT22;8784;50.94667800;7.08448400;2023-04-03T09:04:32;12.70;66.40
17333;DHT22;8784;50.94667800;7.08448400;2023-04-03T09:07:06;12.90;65.20
17333;DHT22;8784;50.94667800;7.08448400;2023-04-03T09:09:37;13.30;64.30
17333;DHT22;8784;50.94667800;7.08448400;2023-04-03T09:12:15;14.40;65.40
17333;DHT22;8784;50.94667800;7.08448400;2023-04-03T09:14:46;17.10;64.40
17333;DHT22;8784;50.94667800;7.08448400;2023-04-03T09:17:26;19.70;61.60
17333;DHT22;8784;50.94667800;7.08448400;2023-04-03T09:19:58;21.80;59.70
17333;DHT22;8784;50.94667800;7.08448400;2023-04-03T09:22:27;22.70;54.10
17333;DHT22;8784;50.94667800;7.08448400;2023-04-03T09:24:58;22.70;51.80
17333;DHT22;8784;50.94667800;7.08448400;2023-04-03T09:27:27;23.00;53.80
17333;DHT22;8784;50.94667800;7.08448400;2023-04-03T09:29:55;24.00;53.30
17333;DHT22;8784;50.94667800;7.08448400;2023-04-03T09:32:27;24.70;52.90
17333;DHT22;8784;50.94667800;7.08448400;2023-04-03T09:34:57;25.60;51.10
17333;DHT22;8784;50.94667800;7.08448400;2023-04-03T09:37:39;26.00;50.30
17333;DHT22;8784;50.94667800;7.08448400;2023-04-03T09:40:28;25.90;49.50
17333;DHT22;8784;50.94667800;7.08448400;2023-04-03T09:42:58;27.10;49.80
17333;DHT22;8784;50.94667800;7.08448400;2023-04-03T09:45:27;27.40;46.40
17333;DHT22;8784;50.94667800;7.08448400;2023-04-03T09:48:06;27.30;46.40
17333;DHT22;8784;50.94667800;7.08448400;2023-04-03T09:50:33;26.30;42.60
17333;DHT22;8784;50.94667800;7.08448400;2023-04-03T09:53:05;25.80;44.30
17333;DHT22;8784;50.94667800;7.08448400;2023-04-03T09:55:42;25.70;45.80
17333;DHT22;8784;50.94667800;7.08448400;2023-04-03T09:58:25;26.00;42.20
17333;DHT22;8784;50.94667800;7.08448400;2023-04-03T10:00:57;24.70;40.60
17333;DHT22;8784;50.94667800;7.08448400;2023-04-03T10:03:28;24.10;40.30
17333;DHT22;8784;50.94667800;7.08448400;2023-04-03T10:05:56;23.20;39.00
17333;DHT22;8784;50.94667800;7.08448400;2023-04-03T10:08:26;22.50;40.10
17333;DHT22;8784;50.94667800;7.08448400;2023-04-03T10:11:12;22.50;41.20
17333;DHT22;8784;50.94667800;7.08448400;2023-04-03T10:13:55;23.30;41.20
17333;DHT22;8784;50.94667800;7.08448400;2023-04-03T10:16:27;24.20;41.60
17333;DHT22;8784;50.94667800;7.08448400;2023-04-03T10:19:05;24.90;41.70
17333;DHT22;8784;50.94667800;7.08448400;2023-04-03T10:21:43;24.90;40.80
17333;DHT22;8784;50.94667800;7.08448400;2023-04-03T10:24:14;24.90;40.20
17333;DHT22;8784;50.94667800;7.08448400;2023-04-03T10:26:52;24.30;37.30
17333;DHT22;8784;50.94667800;7.08448400;2023-04-03T10:29:30;23.40;38.80
17333;DHT22;8784;50.94667800;7.08448400;2023-04-03T10:32:06;23.10;39.80
17333;DHT22;8784;50.94667800;7.08448400;2023-04-03T10:34:37;23.40;41.20
17333;DHT22;8784;50.94667800;7.08448400;2023-04-03T10:37:09;22.70;39.30
17333;DHT22;8784;50.94667800;7.08448400;2023-04-03T10:39:44;21.60;40.50
17333;DHT22;8784;50.94667800;7.08448400;2023-04-03T10:42:20;20.80;41.80
17333;DHT22;8784;50.94667800;7.08448400;2023-04-03T10:45:08;21.30;42.20
17333;DHT22;8784;50.94667800;7.08448400;2023-04-03T10:47:48;22.30;42.10
17333;DHT22;8784;50.94667800;7.08448400;2023-04-03T10:50:31;22.00;40.30
17333;DHT22;8784;50.94667800;7.08448400;2023-04-03T10:53:06;21.50;42.00
17333;DHT22;8784;50.94667800;7.08448400;2023-04-03T10:55:39;21.10;42.60
17333;DHT22;8784;50.94667800;7.08448400;2023-04-03T10:58:17;20.10;42.20
17333;DHT22;8784;50.94667800;7.08448400;2023-04-03T11:00:48;18.50;42.60
17333;DHT22;8784;50.94667800;7.08448400;2023-04-03T11:03:22;17.30;44.30
17333;DHT22;8784;50.94667800;7.08448400;2023-04-03T11:05:52;16.20;44.10
17333;DHT22;8784;50.94667800;7.08448400;2023-04-03T11:08:27;15.50;45.90
17333;DHT22;8784;50.94667800;7.08448400;2023-04-03T11:10:58;15.40;47.30
17333;DHT22;8784;50.94667800;7.08448400;2023-04-03T11:13:33;15.40;47.30
17333;DHT22;8784;50.94667800;7.08448400;2023-04-03T11:16:04;14.90;45.60
17333;DHT22;8784;50.94667800;7.08448400;2023-04-03T11:18:37;14.00;45.40
17333;DHT22;8784;50.94667800;7.08448400;2023-04-03T11:21:09;13.50;46.50
17333;DHT22;8784;50.94667800;7.08448400;2023-04-03T11:23:40;13.30;47.50
17333;DHT22;8784;50.94667800;7.08448400;2023-04-03T11:26:12;13.00;46.90
17333;DHT22;8784;50.94667800;7.08448400;2023-04-03T11:28:40;12.70;46.40
17333;DHT22;8784;50.94667800;7.08448400;2023-04-03T11:31:26;12.40;46.90
17333;DHT22;8784;50.94667800;7.08448400;2023-04-03T11:34:05;12.40;48.20
17333;DHT22;8784;50.94667800;7.08448400;2023-04-03T11:36:40;12.20;46.40
17333;DHT22;8784;50.94667800;7.08448400;2023-04-03T11:39:15;11.90;47.00
17333;DHT22;8784;50.94667800;7.08448400;2023-04-03T11:41:44;11.80;48.30
17333;DHT22;8784;50.94667800;7.08448400;2023-04-03T11:44:30;11.90;48.70
17333;DHT22;8784;50.94667800;7.08448400;2023-04-03T11:47:01;11.90;47.80
17333;DHT22;8784;50.94667800;7.08448400;2023-04-03T11:49:51;11.70;47.90
17333;DHT22;8784;50.94667800;7.08448400;2023-04-03T11:55:41;11.90;48.10
17333;DHT22;8784;50.94667800;7.08448400;2023-04-03T11:58:14;11.70;47.00
17333;DHT22;8784;50.94667800;7.08448400;2023-04-03T12:01:09;11.60;48.40
17333;DHT22;8784;50.94667800;7.08448400;2023-04-03T12:10:17;11.90;49.90
17333;DHT22;8784;50.94667800;7.08448400;2023-04-03T12:12:56;12.10;50.50
17333;DHT22;8784;50.94667800;7.08448400;2023-04-03T12:21:10;12.20;49.80
17333;DHT22;8784;50.94667800;7.08448400;2023-04-03T12:24:03;12.20;49.30
17333;DHT22;8784;50.94667800;7.08448400;2023-04-03T12:26:38;12.30;49.40
17333;DHT22;8784;50.94667800;7.08448400;2023-04-03T12:29:14;12.40;50.20
17333;DHT22;8784;50.94667800;7.08448400;2023-04-03T12:31:48;12.40;49.50
17333;DHT22;8784;50.94667800;7.08448400;2023-04-03T12:34:26;12.40;50.20
17333;DHT22;8784;50.94667800;7.08448400;2023-04-03T12:37:03;12.50;50.40
17333;DHT22;8784;50.94667800;7.08448400;2023-04-03T12:39:51;12.70;50.40
17333;DHT22;8784;50.94667800;7.08448400;2023-04-03T12:42:32;12.60;49.20
17333;DHT22;8784;50.94667800;7.08448400;2023-04-03T12:45:10;12.40;49.10
17333;DHT22;8784;50.94667800;7.08448400;2023-04-03T12:47:43;12.40;49.50
17333;DHT22;8784;50.94667800;7.08448400;2023-04-03T12:50:20;12.30;49.30
17333;DHT22;8784;50.94667800;7.08448400;2023-04-03T12:52:52;12.20;49.80
17333;DHT22;8784;50.94667800;7.08448400;2023-04-03T12:55:21;12.30;49.70
17333;DHT22;8784;50.94667800;7.08448400;2023-04-03T12:57:49;12.10;49.20
17333;DHT22;8784;50.94667800;7.08448400;2023-04-03T13:00:31;12.10;49.40
17333;DHT22;8784;50.94667800;7.08448400;2023-04-03T13:02:59;12.20;50.20
17333;DHT22;8784;50.94667800;7.08448400;2023-04-03T13:05:28;12.40;50.90
17333;DHT22;8784;50.94667800;7.08448400;2023-04-03T13:07:59;12.50;50.00
17333;DHT22;8784;50.94667800;7.08448400;2023-04-03T13:10:28;12.50;50.00
17333;DHT22;8784;50.94667800;7.08448400;2023-04-03T13:12:58;12.40;48.80
17333;DHT22;8784;50.94667800;7.08448400;2023-04-03T13:15:41;12.10;49.00
17333;DHT22;8784;50.94667800;7.08448400;2023-04-03T13:18:25;12.00;50.00
17333;DHT22;8784;50.94667800;7.08448400;2023-04-03T13:20:54;12.10;50.60
17333;DHT22;8784;50.94667800;7.08448400;2023-04-03T13:23:24;12.20;50.20
17333;DHT22;8784;50.94667800;7.08448400;2023-04-03T13:25:51;12.30;50.80
17333;DHT22;8784;50.94667800;7.08448400;2023-04-03T13:28:23;12.20;49.60
17333;DHT22;8784;50.94667800;7.08448400;2023-04-03T13:30:57;12.20;50.90
17333;DHT22;8784;50.94667800;7.08448400;2023-04-03T13:33:27;12.30;51.10
17333;DHT22;8784;50.94667800;7.08448400;2023-04-03T13:36:00;12.30;50.10
17333;DHT22;8784;50.94667800;7.08448400;2023-04-03T13:38:29;12.30;50.60
17333;DHT22;8784;50.94667800;7.08448400;2023-04-03T13:41:01;12.40;49.90
17333;DHT22;8784;50.94667800;7.08448400;2023-04-03T13:43:31;12.10;50.00
17333;DHT22;8784;50.94667800;7.08448400;2023-04-03T13:46:20;12.00;50.40
17333;DHT22;8784;50.94667800;7.08448400;2023-04-03T13:48:49;12.00;51.50
17333;DHT22;8784;50.94667800;7.08448400;2023-04-03T13:51:21;12.10;51.20
17333;DHT22;8784;50.94667800;7.08448400;2023-04-03T13:53:50;12.00;49.90
17333;DHT22;8784;50.94667800;7.08448400;2023-04-03T13:56:21;11.90;49.90
17333;DHT22;8784;50.94667800;7.08448400;2023-04-03T13:58:56;11.80;50.00
17333;DHT22;8784;50.94667800;7.08448400;2023-04-03T14:01:25;11.70;50.40
17333;DHT22;8784;50.94667800;7.08448400;2023-04-03T14:04:00;11.70;51.00
17333;DHT22;8784;50.94667800;7.08448400;2023-04-03T14:06:28;11.70;49.70
17333;DHT22;8784;50.94667800;7.08448400;2023-04-03T14:08:55;11.60;51.20
17333;DHT22;8784;50.94667800;7.08448400;2023-04-03T14:11:24;11.70;51.80
17333;DHT22;8784;50.94667800;7.08448400;2023-04-03T14:13:56;11.90;50.90
17333;DHT22;8784;50.94667800;7.08448400;2023-04-03T14:16:27;11.90;50.70
17333;DHT22;8784;50.94667800;7.08448400;2023-04-03T14:18:55;11.90;50.90
17333;DHT22;8784;50.94667800;7.08448400;2023-04-03T14:21:22;11.80;50.90
17333;DHT22;8784;50.94667800;7.08448400;2023-04-03T14:23:50;11.80;51.60
17333;DHT22;8784;50.94667800;7.08448400;2023-04-03T14:26:18;11.90;52.10
17333;DHT22;8784;50.94667800;7.08448400;2023-04-03T14:28:47;12.00;52.20
17333;DHT22;8784;50.94667800;7.08448400;2023-04-03T14:31:16;12.10;52.50
17333;DHT22;8784;50.94667800;7.08448400;2023-04-03T14:33:43;12.30;52.20
17333;DHT22;8784;50.94667800;7.08448400;2023-04-03T14:36:13;12.20;51.50
17333;DHT22;8784;50.94667800;7.08448400;2023-04-03T14:38:41;12.20;51.40
17333;DHT22;8784;50.94667800;7.08448400;2023-04-03T14:41:12;12.20;50.90
17333;DHT22;8784;50.94667800;7.08448400;2023-04-03T14:43:39;12.00;50.90
17333;DHT22;8784;50.94667800;7.08448400;2023-04-03T14:46:12;12.00;51.10
17333;DHT22;8784;50.94667800;7.08448400;2023-04-03T14:48:42;12.00;51.50
17333;DHT22;8784;50.94667800;7.08448400;2023-04-03T14:51:10;12.00;51.90
17333;DHT22;8784;50.94667800;7.08448400;2023-04-03T14:53:38;11.90;51.70
17333;DHT22;8784;50.94667800;7.08448400;2023-04-03T14:56:12;12.00;52.40
17333;DHT22;8784;50.94667800;7.08448400;2023-04-03T14:58:39;12.10;52.50
17333;DHT22;8784;50.94667800;7.08448400;2023-04-03T15:01:06;12.10;52.00
17333;DHT22;8784;50.94667800;7.08448400;2023-04-03T15:03:35;12.00;50.90
17333;DHT22;8784;50.94667800;7.08448400;2023-04-03T15:06:04;11.90;50.80
17333;DHT22;8784;50.94667800;7.08448400;2023-04-03T15:08:31;11.80;52.00
17333;DHT22;8784;50.94667800;7.08448400;2023-04-03T15:10:58;11.90;52.40
17333;DHT22;8784;50.94667800;7.08448400;2023-04-03T15:13:26;11.90;52.20
17333;DHT22;8784;50.94667800;7.08448400;2023-04-03T15:15:53;11.90;52.00
17333;DHT22;8784;50.94667800;7.08448400;2023-04-03T15:18:22;11.90;51.80
17333;DHT22;8784;50.94667800;7.08448400;2023-04-03T15:20:51;11.90;51.70
17333;DHT22;8784;50.94667800;7.08448400;2023-04-03T15:23:19;11.90;52.20
17333;DHT22;8784;50.94667800;7.08448400;2023-04-03T15:25:52;12.00;52.40
17333;DHT22;8784;50.94667800;7.08448400;2023-04-03T15:28:23;11.90;51.80
17333;DHT22;8784;50.94667800;7.08448400;2023-04-03T15:30:51;11.90;52.10
17333;DHT22;8784;50.94667800;7.08448400;2023-04-03T15:33:18;11.90;52.20
17333;DHT22;8784;50.94667800;7.08448400;2023-04-03T15:35:45;11.90;52.40
17333;DHT22;8784;50.94667800;7.08448400;2023-04-03T15:38:12;12.00;52.30
17333;DHT22;8784;50.94667800;7.08448400;2023-04-03T15:40:41;12.00;52.10
17333;DHT22;8784;50.94667800;7.08448400;2023-04-03T15:43:08;11.90;52.40
17333;DHT22;8784;50.94667800;7.08448400;2023-04-03T15:45:37;11.90;52.80
17333;DHT22;8784;50.94667800;7.08448400;2023-04-03T15:48:04;11.90;52.50
17333;DHT22;8784;50.94667800;7.08448400;2023-04-03T15:50:33;11.90;52.80
17333;DHT22;8784;50.94667800;7.08448400;2023-04-03T15:53:01;11.90;53.10
17333;DHT22;8784;50.94667800;7.08448400;2023-04-03T15:55:30;11.90;52.90
17333;DHT22;8784;50.94667800;7.08448400;2023-04-03T15:57:59;11.90;53.10
17333;DHT22;8784;50.94667800;7.08448400;2023-04-03T16:00:27;11.90;52.90
17333;DHT22;8784;50.94667800;7.08448400;2023-04-03T16:02:56;11.80;53.10
17333;DHT22;8784;50.94667800;7.08448400;2023-04-03T16:05:24;11.90;53.30
17333;DHT22;8784;50.94667800;7.08448400;2023-04-03T16:07:51;11.80;52.40
17333;DHT22;8784;50.94667800;7.08448400;2023-04-03T16:10:19;11.70;52.50
17333;DHT22;8784;50.94667800;7.08448400;2023-04-03T16:12:46;11.60;53.10
17333;DHT22;8784;50.94667800;7.08448400;2023-04-03T16:15:14;11.60;53.40
17333;DHT22;8784;50.94667800;7.08448400;2023-04-03T16:17:41;11.50;53.70
17333;DHT22;8784;50.94667800;7.08448400;2023-04-03T16:20:10;11.60;53.60
17333;DHT22;8784;50.94667800;7.08448400;2023-04-03T16:22:38;11.50;53.40
17333;DHT22;8784;50.94667800;7.08448400;2023-04-03T16:25:07;11.50;53.60
17333;DHT22;8784;50.94667800;7.08448400;2023-04-03T16:27:35;11.40;53.40
17333;DHT22;8784;50.94667800;7.08448400;2023-04-03T16:30:03;11.40;53.20
17333;DHT22;8784;50.94667800;7.08448400;2023-04-03T16:32:32;11.20;51.80
17333;DHT22;8784;50.94667800;7.08448400;2023-04-03T16:34:59;11.00;53.10
17333;DHT22;8784;50.94667800;7.08448400;2023-04-03T16:37:26;10.90;53.00
17333;DHT22;8784;50.94667800;7.08448400;2023-04-03T16:39:53;10.90;53.40
17333;DHT22;8784;50.94667800;7.08448400;2023-04-03T16:42:20;10.90;53.70
17333;DHT22;8784;50.94667800;7.08448400;2023-04-03T16:44:47;10.80;53.40
17333;DHT22;8784;50.94667800;7.08448400;2023-04-03T16:47:13;10.70;54.00
17333;DHT22;8784;50.94667800;7.08448400;2023-04-03T16:49:46;10.80;54.30
17333;DHT22;8784;50.94667800;7.08448400;2023-04-03T16:52:13;10.80;54.30
17333;DHT22;8784;50.94667800;7.08448400;2023-04-03T16:54:41;10.80;54.40
17333;DHT22;8784;50.94667800;7.08448400;2023-04-03T16:57:08;10.70;54.40
17333;DHT22;8784;50.94667800;7.08448400;2023-04-03T16:59:34;10.60;54.60
17333;DHT22;8784;50.94667800;7.08448400;2023-04-03T17:02:01;10.70;54.70
17333;DHT22;8784;50.94667800;7.08448400;2023-04-03T17:04:29;10.50;55.10
17333;DHT22;8784;50.94667800;7.08448400;2023-04-03T17:06:57;10.50;55.30
17333;DHT22;8784;50.94667800;7.08448400;2023-04-03T17:09:25;10.40;55.50
17333;DHT22;8784;50.94667800;7.08448400;2023-04-03T17:11:52;10.30;55.60
17333;DHT22;8784;50.94667800;7.08448400;2023-04-03T17:14:19;10.30;55.80
17333;DHT22;8784;50.94667800;7.08448400;2023-04-03T17:16:46;10.20;56.00
17333;DHT22;8784;50.94667800;7.08448400;2023-04-03T17:19:12;10.20;56.00
17333;DHT22;8784;50.94667800;7.08448400;2023-04-03T17:21:41;10.20;56.00
17333;DHT22;8784;50.94667800;7.08448400;2023-04-03T17:24:11;10.20;56.00
17333;DHT22;8784;50.94667800;7.08448400;2023-04-03T17:26:39;10.10;56.20
17333;DHT22;8784;50.94667800;7.08448400;2023-04-03T17:29:07;10.10;56.40
17333;DHT22;8784;50.94667800;7.08448400;2023-04-03T17:31:34;10.00;56.20
17333;DHT22;8784;50.94667800;7.08448400;2023-04-03T17:34:01;9.90;56.40
17333;DHT22;8784;50.94667800;7.08448400;2023-04-03T17:36:28;9.80;56.60
17333;DHT22;8784;50.94667800;7.08448400;2023-04-03T17:38:55;9.70;56.70
17333;DHT22;8784;50.94667800;7.08448400;2023-04-03T17:41:23;9.70;56.80
17333;DHT22;8784;50.94667800;7.08448400;2023-04-03T17:43:51;9.70;56.90
17333;DHT22;8784;50.94667800;7.08448400;2023-04-03T17:46:21;9.60;56.70
17333;DHT22;8784;50.94667800;7.08448400;2023-04-03T17:48:48;9.50;57.00
17333;DHT22;8784;50.94667800;7.08448400;2023-04-03T17:51:16;9.40;56.90
17333;DHT22;8784;50.94667800;7.08448400;2023-04-03T17:53:43;9.30;57.00
17333;DHT22;8784;50.94667800;7.08448400;2023-04-03T17:56:12;9.20;57.10
17333;DHT22;8784;50.94667800;7.08448400;2023-04-03T17:58:41;9.20;57.40
17333;DHT22;8784;50.94667800;7.08448400;2023-04-03T18:01:10;9.10;57.30
17333;DHT22;8784;50.94667800;7.08448400;2023-04-03T18:03:37;9.00;57.40
17333;DHT22;8784;50.94667800;7.08448400;2023-04-03T18:06:05;9.00;57.50
17333;DHT22;8784;50.94667800;7.08448400;2023-04-03T18:08:36;8.90;57.50
17333;DHT22;8784;50.94667800;7.08448400;2023-04-03T18:11:04;8.80;57.80
17333;DHT22;8784;50.94667800;7.08448400;2023-04-03T18:13:31;8.70;57.90
17333;DHT22;8784;50.94667800;7.08448400;2023-04-03T18:16:03;8.70;58.20
17333;DHT22;8784;50.94667800;7.08448400;2023-04-03T18:18:30;8.60;58.10
17333;DHT22;8784;50.94667800;7.08448400;2023-04-03T18:20:57;8.60;58.30
17333;DHT22;8784;50.94667800;7.08448400;2023-04-03T18:23:25;8.50;58.60
17333;DHT22;8784;50.94667800;7.08448400;2023-04-03T18:25:52;8.50;58.60
17333;DHT22;8784;50.94667800;7.08448400;2023-04-03T18:28:19;8.40;58.70
17333;DHT22;8784;50.94667800;7.08448400;2023-04-03T18:30:47;8.30;58.80
17333;DHT22;8784;50.94667800;7.08448400;2023-04-03T18:33:15;8.30;59.60
17333;DHT22;8784;50.94667800;7.08448400;2023-04-03T18:35:42;8.30;59.10
17333;DHT22;8784;50.94667800;7.08448400;2023-04-03T18:38:09;8.20;59.20
17333;DHT22;8784;50.94667800;7.08448400;2023-04-03T18:40:36;8.10;59.20
17333;DHT22;8784;50.94667800;7.08448400;2023-04-03T18:43:04;8.00;59.30
17333;DHT22;8784;50.94667800;7.08448400;2023-04-03T18:45:34;8.00;59.60
17333;DHT22;8784;50.94667800;7.08448400;2023-04-03T18:48:01;8.00;59.70
17333;DHT22;8784;50.94667800;7.08448400;2023-04-03T18:50:30;7.90;59.80
17333;DHT22;8784;50.94667800;7.08448400;2023-04-03T18:52:57;7.90;59.80
17333;DHT22;8784;50.94667800;7.08448400;2023-04-03T18:55:24;7.90;59.80
17333;DHT22;8784;50.94667800;7.08448400;2023-04-03T18:57:51;7.80;59.80
17333;DHT22;8784;50.94667800;7.08448400;2023-04-03T19:00:18;7.70;60.00
17333;DHT22;8784;50.94667800;7.08448400;2023-04-03T19:02:45;7.60;60.00
17333;DHT22;8784;50.94667800;7.08448400;2023-04-03T19:05:14;7.60;60.20
17333;DHT22;8784;50.94667800;7.08448400;2023-04-03T19:07:43;7.50;60.20
17333;DHT22;8784;50.94667800;7.08448400;2023-04-03T19:10:11;7.50;60.40
17333;DHT22;8784;50.94667800;7.08448400;2023-04-03T19:12:42;7.40;60.50
17333;DHT22;8784;50.94667800;7.08448400;2023-04-03T19:15:10;7.40;60.70
17333;DHT22;8784;50.94667800;7.08448400;2023-04-03T19:17:37;7.40;60.80
17333;DHT22;8784;50.94667800;7.08448400;2023-04-03T19:20:04;7.30;60.90
17333;DHT22;8784;50.94667800;7.08448400;2023-04-03T19:22:31;7.30;61.10
17333;DHT22;8784;50.94667800;7.08448400;2023-04-03T19:25:00;7.30;61.20
17333;DHT22;8784;50.94667800;7.08448400;2023-04-03T19:27:27;7.20;61.20
17333;DHT22;8784;50.94667800;7.08448400;2023-04-03T19:29:56;7.10;61.30
17333;DHT22;8784;50.94667800;7.08448400;2023-04-03T19:32:26;7.10;61.50
17333;DHT22;8784;50.94667800;7.08448400;2023-04-03T19:34:53;7.10;61.70
17333;DHT22;8784;50.94667800;7.08448400;2023-04-03T19:37:20;7.10;61.70
17333;DHT22;8784;50.94667800;7.08448400;2023-04-03T19:39:47;7.10;61.80
17333;DHT22;8784;50.94667800;7.08448400;2023-04-03T19:42:16;7.10;61.90
17333;DHT22;8784;50.94667800;7.08448400;2023-04-03T19:44:43;7.00;61.90
17333;DHT22;8784;50.94667800;7.08448400;2023-04-03T19:47:11;7.00;62.30
17333;DHT22;8784;50.94667800;7.08448400;2023-04-03T19:49:40;7.00;62.20
17333;DHT22;8784;50.94667800;7.08448400;2023-04-03T19:52:08;6.90;62.20
17333;DHT22;8784;50.94667800;7.08448400;2023-04-03T19:54:35;6.90;62.20
17333;DHT22;8784;50.94667800;7.08448400;2023-04-03T19:57:02;6.90;62.40
17333;DHT22;8784;50.94667800;7.08448400;2023-04-03T19:59:30;6.80;62.40
17333;DHT22;8784;50.94667800;7.08448400;2023-04-03T20:01:57;6.80;62.60
17333;DHT22;8784;50.94667800;7.08448400;2023-04-03T20:04:24;6.70;62.60
17333;DHT22;8784;50.94667800;7.08448400;2023-04-03T20:06:51;6.70;62.80
17333;DHT22;8784;50.94667800;7.08448400;2023-04-03T20:09:18;6.70;63.70
17333;DHT22;8784;50.94667800;7.08448400;2023-04-03T20:11:46;6.70;63.30
17333;DHT22;8784;50.94667800;7.08448400;2023-04-03T20:14:13;6.60;63.30
17333;DHT22;8784;50.94667800;7.08448400;2023-04-03T20:16:42;6.70;63.50
17333;DHT22;8784;50.94667800;7.08448400;2023-04-03T20:19:10;6.60;63.40
17333;DHT22;8784;50.94667800;7.08448400;2023-04-03T20:21:38;6.60;63.40